createdAt,value
2017-05-29T00:01:10.850Z,1009.93
2017-05-29T00:02:10.770Z,1009.93
2017-05-29T00:03:10.710Z,1009.95
2017-05-29T00:04:10.646Z,1009.95
2017-05-29T00:05:10.581Z,1009.91
2017-05-29T00:06:10.534Z,1009.92
2017-05-29T00:07:10.459Z,1009.89
2017-05-29T00:08:10.396Z,1009.92
2017-05-29T00:09:10.334Z,1009.91
2017-05-29T00:10:10.271Z,1009.92
2017-05-29T00:11:10.209Z,1009.92
2017-05-29T00:12:10.147Z,1009.93
2017-05-29T00:13:10.088Z,1009.91
2017-05-29T00:14:10.023Z,1009.91
2017-05-29T00:15:09.958Z,1009.9
2017-05-29T00:16:09.897Z,1009.91
2017-05-29T00:17:09.834Z,1009.89
2017-05-29T00:18:09.775Z,1009.85
2017-05-29T00:19:09.709Z,1009.8
2017-05-29T00:20:09.646Z,1009.82
2017-05-29T00:21:09.584Z,1009.84
2017-05-29T00:22:09.523Z,1009.81
2017-05-29T00:23:09.460Z,1009.78
2017-05-29T00:24:09.398Z,1009.77
2017-05-29T00:25:09.336Z,1009.78
2017-05-29T00:26:09.273Z,1009.74
2017-05-29T00:27:09.210Z,1009.71
2017-05-29T00:28:09.149Z,1009.74
2017-05-29T00:29:09.087Z,1009.68
2017-05-29T00:30:09.023Z,1009.66
2017-05-29T00:31:08.962Z,1009.69
2017-05-29T00:32:08.898Z,1009.71
2017-05-29T00:33:08.836Z,1009.73
2017-05-29T00:34:08.774Z,1009.74
2017-05-29T00:35:08.713Z,1009.73
2017-05-29T00:36:08.651Z,1009.73
2017-05-29T00:37:08.587Z,1009.74
2017-05-29T00:38:08.525Z,1009.71
2017-05-29T00:39:08.462Z,1009.72
2017-05-29T00:40:08.401Z,1009.7
2017-05-29T00:41:08.337Z,1009.72
2017-05-29T00:42:08.276Z,1009.69
2017-05-29T00:43:08.213Z,1009.69
2017-05-29T00:44:08.151Z,1009.68
2017-05-29T00:45:08.088Z,1009.72
2017-05-29T00:46:08.027Z,1009.71
2017-05-29T00:47:07.964Z,1009.71
2017-05-29T00:48:07.902Z,1009.69
2017-05-29T00:49:07.839Z,1009.69
2017-05-29T00:50:07.778Z,1009.68
2017-05-29T00:51:07.714Z,1009.63
2017-05-29T00:52:07.901Z,1009.63
2017-05-29T00:53:07.589Z,1009.59
2017-05-29T00:54:07.525Z,1009.63
2017-05-29T00:55:07.463Z,1009.63
2017-05-29T00:56:07.401Z,1009.62
2017-05-29T00:57:07.341Z,1009.61
2017-05-29T00:58:07.277Z,1009.59
2017-05-29T00:59:07.215Z,1009.6
2017-05-29T01:00:07.153Z,1009.6
2017-05-29T01:01:07.091Z,1009.61
2017-05-29T01:02:07.027Z,1009.6
2017-05-29T01:03:06.965Z,1009.59
2017-05-29T01:04:06.902Z,1009.61
2017-05-29T01:05:06.841Z,1009.63
2017-05-29T01:06:06.777Z,1009.65
2017-05-29T01:07:06.714Z,1009.61
2017-05-29T01:08:06.653Z,1009.63
2017-05-29T01:09:06.592Z,1009.63
2017-05-29T01:10:06.528Z,1009.62
2017-05-29T01:11:06.467Z,1009.66
2017-05-29T01:12:06.403Z,1009.66
2017-05-29T01:13:06.343Z,1009.66
2017-05-29T01:14:06.278Z,1009.63
2017-05-29T01:15:06.217Z,1009.58
2017-05-29T01:16:06.157Z,1009.59
2017-05-29T01:17:06.094Z,1009.62
2017-05-29T01:18:06.029Z,1009.59
2017-05-29T01:19:05.968Z,1009.56
2017-05-29T01:20:05.906Z,1009.5
2017-05-29T01:21:05.842Z,1009.47
2017-05-29T01:22:05.780Z,1009.44
2017-05-29T01:23:05.719Z,1009.46
2017-05-29T01:24:05.656Z,1009.53
2017-05-29T01:25:05.593Z,1009.48
2017-05-29T01:26:05.531Z,1009.46
2017-05-29T01:27:05.469Z,1009.42
2017-05-29T01:28:05.406Z,1009.4
2017-05-29T01:29:05.343Z,1009.4
2017-05-29T01:30:05.281Z,1009.42
2017-05-29T01:31:05.218Z,1009.42
2017-05-29T01:32:05.163Z,1009.36
2017-05-29T01:33:05.094Z,1009.37
2017-05-29T01:34:05.030Z,1009.38
2017-05-29T01:35:04.969Z,1009.35
2017-05-29T01:36:04.907Z,1009.33
2017-05-29T01:37:04.846Z,1009.38
2017-05-29T01:38:04.809Z,1009.35
2017-05-29T01:39:04.720Z,1009.38
2017-05-29T01:40:04.658Z,1009.39
2017-05-29T01:41:04.595Z,1009.39
2017-05-29T01:42:04.585Z,1009.43
2017-05-29T01:43:04.471Z,1009.39
2017-05-29T01:44:04.408Z,1009.38
2017-05-29T01:45:04.348Z,1009.37
2017-05-29T01:46:04.283Z,1009.37
2017-05-29T01:47:04.219Z,1009.36
2017-05-29T01:48:04.159Z,1009.36
2017-05-29T01:49:04.097Z,1009.35
2017-05-29T01:50:04.034Z,1009.32
2017-05-29T01:51:03.971Z,1009.37
2017-05-29T01:52:03.910Z,1009.32
2017-05-29T01:53:03.852Z,1009.29
2017-05-29T01:54:03.784Z,1009.3
2017-05-29T01:55:03.721Z,1009.28
2017-05-29T01:56:03.660Z,1009.28
2017-05-29T01:57:03.597Z,1009.29
2017-05-29T01:58:03.534Z,1009.27
2017-05-29T01:59:03.474Z,1009.26
2017-05-29T02:00:03.410Z,1009.27
2017-05-29T02:01:03.349Z,1009.29
2017-05-29T02:02:03.285Z,1009.3
2017-05-29T02:03:03.224Z,1009.29
2017-05-29T02:04:03.161Z,1009.3
2017-05-29T02:05:03.098Z,1009.27
2017-05-29T02:06:03.036Z,1009.3
2017-05-29T02:07:02.974Z,1009.25
2017-05-29T02:08:02.911Z,1009.27
2017-05-29T02:09:02.849Z,1009.27
2017-05-29T02:10:02.785Z,1009.31
2017-05-29T02:11:02.725Z,1009.26
2017-05-29T02:12:02.662Z,1009.27
2017-05-29T02:13:02.599Z,1009.27
2017-05-29T02:14:02.536Z,1009.24
2017-05-29T02:15:02.473Z,1009.19
2017-05-29T02:16:02.411Z,1009.18
2017-05-29T02:17:02.349Z,1009.19
2017-05-29T02:18:02.287Z,1009.16
2017-05-29T02:19:02.224Z,1009.17
2017-05-29T02:20:02.162Z,1009.19
2017-05-29T02:21:02.100Z,1009.2
2017-05-29T02:22:02.044Z,1009.14
2017-05-29T02:23:01.975Z,1009.16
2017-05-29T02:24:01.912Z,1009.14
2017-05-29T02:25:01.850Z,1009.11
2017-05-29T02:26:01.789Z,1009.08
2017-05-29T02:27:01.724Z,1009.08
2017-05-29T02:28:01.661Z,1009.1
2017-05-29T02:29:01.600Z,1009.11
2017-05-29T02:30:01.538Z,1009.13
2017-05-29T02:31:01.476Z,1009.14
2017-05-29T02:32:01.414Z,1009.19
2017-05-29T02:33:01.352Z,1009.15
2017-05-29T02:34:01.288Z,1009.15
2017-05-29T02:35:01.226Z,1009.14
2017-05-29T02:36:01.165Z,1009.12
2017-05-29T02:37:01.101Z,1009.1
2017-05-29T02:38:01.048Z,1009.14
2017-05-29T02:39:00.976Z,1009.14
2017-05-29T02:40:00.915Z,1009.11
2017-05-29T02:41:00.851Z,1009.1
2017-05-29T02:42:00.788Z,1009.1
2017-05-29T02:43:00.736Z,1009.09
2017-05-29T02:44:00.665Z,1009.1
2017-05-29T02:45:00.602Z,1009.08
2017-05-29T02:46:00.547Z,1009.11
2017-05-29T02:47:00.477Z,1009.1
2017-05-29T02:48:00.414Z,1009.15
2017-05-29T02:49:00.351Z,1009.15
2017-05-29T02:50:00.289Z,1009.14
2017-05-29T02:51:00.235Z,1009.06
2017-05-29T02:52:00.178Z,1009.09
2017-05-29T02:53:00.103Z,1009.07
2017-05-29T02:54:00.039Z,1009.04
2017-05-29T02:54:59.979Z,1009.06
2017-05-29T02:55:59.915Z,1009.06
2017-05-29T02:56:59.856Z,1009.06
2017-05-29T02:57:59.790Z,1009.07
2017-05-29T02:58:59.741Z,1009.08
2017-05-29T02:59:59.667Z,1009.07
2017-05-29T03:00:59.603Z,1009.06
2017-05-29T03:01:59.541Z,1009.04
2017-05-29T03:02:59.478Z,1009.05
2017-05-29T03:03:59.416Z,1009.06
2017-05-29T03:04:59.363Z,1009.02
2017-05-29T03:05:59.291Z,1009.03
2017-05-29T03:06:59.228Z,1009.04
2017-05-29T03:07:59.168Z,1009.06
2017-05-29T03:08:59.108Z,1009.06
2017-05-29T03:09:59.044Z,1009.09
2017-05-29T03:10:58.987Z,1009.06
2017-05-29T03:11:58.919Z,1009.08
2017-05-29T03:12:58.857Z,1009.09
2017-05-29T03:13:58.793Z,1009.08
2017-05-29T03:14:58.728Z,1009.06
2017-05-29T03:15:58.668Z,1009.09
2017-05-29T03:16:58.605Z,1009.08
2017-05-29T03:17:58.543Z,1009.09
2017-05-29T03:18:58.487Z,1009.08
2017-05-29T03:19:58.419Z,1009.09
2017-05-29T03:20:58.367Z,1009.12
2017-05-29T03:21:58.293Z,1009.11
2017-05-29T03:22:58.232Z,1009.1
2017-05-29T03:23:58.169Z,1009.09
2017-05-29T03:24:58.107Z,1009.07
2017-05-29T03:25:58.044Z,1009.1
2017-05-29T03:26:57.981Z,1009.08
2017-05-29T03:27:57.920Z,1009.1
2017-05-29T03:28:57.856Z,1009.17
2017-05-29T03:29:57.794Z,1009.22
2017-05-29T03:30:57.732Z,1009.2
2017-05-29T03:31:57.669Z,1009.2
2017-05-29T03:32:57.615Z,1009.18
2017-05-29T03:33:57.556Z,1009.2
2017-05-29T03:34:57.481Z,1009.2
2017-05-29T03:35:57.422Z,1009.22
2017-05-29T03:36:57.358Z,1009.25
2017-05-29T03:37:57.294Z,1009.26
2017-05-29T03:38:57.232Z,1009.26
2017-05-29T03:39:57.169Z,1009.3
2017-05-29T03:40:57.107Z,1009.27
2017-05-29T03:41:57.058Z,1009.26
2017-05-29T03:42:56.982Z,1009.3
2017-05-29T03:43:56.919Z,1009.26
2017-05-29T03:44:56.857Z,1009.27
2017-05-29T03:45:56.796Z,1009.3
2017-05-29T03:46:56.732Z,1009.29
2017-05-29T03:47:56.670Z,1009.3
2017-05-29T03:48:56.609Z,1009.34
2017-05-29T03:49:56.546Z,1009.29
2017-05-29T03:50:56.505Z,1009.32
2017-05-29T03:51:56.419Z,1009.31
2017-05-29T03:52:56.367Z,1009.3
2017-05-29T03:53:56.295Z,1009.29
2017-05-29T03:54:56.247Z,1009.27
2017-05-29T03:55:56.172Z,1009.29
2017-05-29T03:56:56.108Z,1009.3
2017-05-29T03:57:56.055Z,1009.32
2017-05-29T03:58:55.985Z,1009.33
2017-05-29T03:59:55.921Z,1009.35
2017-05-29T04:00:55.859Z,1009.38
2017-05-29T04:01:55.795Z,1009.41
2017-05-29T04:02:55.734Z,1009.38
2017-05-29T04:03:55.685Z,1009.37
2017-05-29T04:04:55.607Z,1009.38
2017-05-29T04:05:55.546Z,1009.34
2017-05-29T04:06:55.484Z,1009.34
2017-05-29T04:07:55.422Z,1009.34
2017-05-29T04:08:55.360Z,1009.35
2017-05-29T04:09:55.298Z,1009.36
2017-05-29T04:10:55.244Z,1009.37
2017-05-29T04:11:55.172Z,1009.39
2017-05-29T04:12:55.110Z,1009.39
2017-05-29T04:13:55.048Z,1009.39
2017-05-29T04:14:54.986Z,1009.43
2017-05-29T04:15:54.922Z,1009.44
2017-05-29T04:16:54.860Z,1009.36
2017-05-29T04:17:54.797Z,1009.45
2017-05-29T04:18:54.736Z,1009.42
2017-05-29T04:19:54.687Z,1009.46
2017-05-29T04:20:54.610Z,1009.45
2017-05-29T04:21:54.546Z,1009.47
2017-05-29T04:22:54.485Z,1009.47
2017-05-29T04:23:54.423Z,1009.47
2017-05-29T04:24:54.360Z,1009.53
2017-05-29T04:25:54.298Z,1009.53
2017-05-29T04:26:54.235Z,1009.54
2017-05-29T04:27:54.173Z,1009.5
2017-05-29T04:28:54.112Z,1009.8
2017-05-29T04:29:54.049Z,1009.67
2017-05-29T04:30:53.986Z,1009.74
2017-05-29T04:31:53.923Z,1009.57
2017-05-29T04:32:53.862Z,1009.59
2017-05-29T04:33:53.798Z,1009.59
2017-05-29T04:34:53.736Z,1009.6
2017-05-29T04:35:53.673Z,1009.63
2017-05-29T04:36:53.611Z,1009.61
2017-05-29T04:37:53.548Z,1009.65
2017-05-29T04:38:53.486Z,1009.63
2017-05-29T04:39:53.424Z,1009.64
2017-05-29T04:40:53.362Z,1009.66
2017-05-29T04:41:53.299Z,1009.66
2017-05-29T04:42:53.237Z,1009.65
2017-05-29T04:43:53.174Z,1009.66
2017-05-29T04:44:53.113Z,1009.69
2017-05-29T04:45:53.057Z,1009.66
2017-05-29T04:46:52.987Z,1009.66
2017-05-29T04:47:52.925Z,1009.67
2017-05-29T04:48:52.862Z,1009.69
2017-05-29T04:49:52.800Z,1009.72
2017-05-29T04:50:52.737Z,1009.72
2017-05-29T04:51:52.674Z,1009.76
2017-05-29T04:52:52.615Z,1009.75
2017-05-29T04:53:52.549Z,1009.75
2017-05-29T04:54:52.487Z,1009.76
2017-05-29T04:55:52.424Z,1009.8
2017-05-29T04:56:52.361Z,1009.81
2017-05-29T04:57:52.303Z,1009.75
2017-05-29T04:58:52.237Z,1009.73
2017-05-29T04:59:52.178Z,1009.75
2017-05-29T05:00:52.112Z,1009.75
2017-05-29T05:01:52.049Z,1009.78
2017-05-29T05:02:51.987Z,1009.82
2017-05-29T05:03:51.922Z,1009.84
2017-05-29T05:04:51.861Z,1009.85
2017-05-29T05:05:51.798Z,1009.87
2017-05-29T05:06:51.734Z,1009.85
2017-05-29T05:07:51.673Z,1009.88
2017-05-29T05:08:51.610Z,1009.85
2017-05-29T05:09:51.546Z,1009.87
2017-05-29T05:10:51.485Z,1009.88
2017-05-29T05:11:51.422Z,1009.88
2017-05-29T05:12:51.361Z,1009.87
2017-05-29T05:13:51.297Z,1009.9
2017-05-29T05:14:51.234Z,1009.9
2017-05-29T05:15:51.171Z,1009.92
2017-05-29T05:16:51.108Z,1009.94
2017-05-29T05:17:51.046Z,1009.94
2017-05-29T05:18:50.984Z,1009.9
2017-05-29T05:19:50.921Z,1009.9
2017-05-29T05:20:50.858Z,1009.91
2017-05-29T05:21:50.795Z,1009.94
2017-05-29T05:22:50.733Z,1009.93
2017-05-29T05:23:50.670Z,1009.91
2017-05-29T05:24:50.608Z,1009.92
2017-05-29T05:25:50.543Z,1009.95
2017-05-29T05:26:50.481Z,1009.92
2017-05-29T05:27:50.419Z,1009.97
2017-05-29T05:28:50.356Z,1009.95
2017-05-29T05:29:50.294Z,1009.97
2017-05-29T05:30:50.231Z,1009.93
2017-05-29T05:31:50.169Z,1009.93
2017-05-29T05:32:50.106Z,1009.96
2017-05-29T05:33:50.042Z,1009.94
2017-05-29T05:34:49.980Z,1009.96
2017-05-29T05:35:49.917Z,1009.96
2017-05-29T05:36:49.853Z,1009.96
2017-05-29T05:37:49.792Z,1009.98
2017-05-29T05:38:49.730Z,1009.98
2017-05-29T05:39:49.666Z,1010.01
2017-05-29T05:40:49.604Z,1009.98
2017-05-29T05:41:49.541Z,1009.98
2017-05-29T05:42:49.479Z,1009.97
2017-05-29T05:43:49.414Z,1009.99
2017-05-29T05:44:49.353Z,1009.94
2017-05-29T05:45:49.290Z,1009.94
2017-05-29T05:46:49.228Z,1009.93
2017-05-29T05:47:49.165Z,1009.91
2017-05-29T05:48:49.101Z,1009.9
2017-05-29T05:49:49.039Z,1009.9
2017-05-29T05:50:48.975Z,1009.86
2017-05-29T05:51:48.913Z,1009.82
2017-05-29T05:52:48.850Z,1009.85
2017-05-29T05:53:48.788Z,1009.83
2017-05-29T05:54:48.724Z,1009.82
2017-05-29T05:55:48.661Z,1009.82
2017-05-29T05:56:48.599Z,1009.82
2017-05-29T05:57:48.536Z,1009.78
2017-05-29T05:58:48.474Z,1009.78
2017-05-29T05:59:48.411Z,1009.73
2017-05-29T06:00:48.347Z,1009.76
2017-05-29T06:01:48.284Z,1009.74
2017-05-29T06:02:48.222Z,1009.75
2017-05-29T06:03:48.160Z,1009.78
2017-05-29T06:04:48.097Z,1009.76
2017-05-29T06:05:48.034Z,1009.71
2017-05-29T06:06:47.971Z,1009.73
2017-05-29T06:07:47.908Z,1009.75
2017-05-29T06:08:47.846Z,1009.75
2017-05-29T06:09:47.782Z,1009.74
2017-05-29T06:10:47.719Z,1009.74
2017-05-29T06:11:47.657Z,1009.74
2017-05-29T06:12:47.592Z,1009.7
2017-05-29T06:13:47.533Z,1009.75
2017-05-29T06:14:47.480Z,1009.77
2017-05-29T06:15:47.406Z,1009.74
2017-05-29T06:16:47.342Z,1009.68
2017-05-29T06:17:47.278Z,1009.71
2017-05-29T06:18:47.217Z,1009.7
2017-05-29T06:19:47.155Z,1009.69
2017-05-29T06:20:47.092Z,1009.71
2017-05-29T06:21:47.029Z,1009.71
2017-05-29T06:22:46.966Z,1009.75
2017-05-29T06:23:46.905Z,1009.73
2017-05-29T06:24:46.840Z,1009.71
2017-05-29T06:25:46.778Z,1009.7
2017-05-29T06:26:46.715Z,1009.67
2017-05-29T06:27:46.651Z,1009.66
2017-05-29T06:28:46.589Z,1009.7
2017-05-29T06:29:46.524Z,1009.68
2017-05-29T06:30:46.462Z,1009.71
2017-05-29T06:31:46.405Z,1009.63
2017-05-29T06:32:46.339Z,1009.62
2017-05-29T06:33:46.276Z,1009.58
2017-05-29T06:34:46.211Z,1009.58
2017-05-29T06:35:46.149Z,1009.57
2017-05-29T06:36:46.086Z,1009.6
2017-05-29T06:37:46.024Z,1009.6
2017-05-29T06:38:45.959Z,1009.58
2017-05-29T06:39:45.897Z,1009.61
2017-05-29T06:40:45.834Z,1009.58
2017-05-29T06:41:45.771Z,1009.58
2017-05-29T06:42:45.709Z,1009.61
2017-05-29T06:43:45.646Z,1009.58
2017-05-29T06:44:45.582Z,1009.59
2017-05-29T06:45:45.519Z,1009.61
2017-05-29T06:46:45.455Z,1009.6
2017-05-29T06:47:45.394Z,1009.58
2017-05-29T06:48:45.331Z,1009.57
2017-05-29T06:49:45.266Z,1009.55
2017-05-29T06:50:45.205Z,1009.53
2017-05-29T06:51:45.141Z,1009.52
2017-05-29T06:52:45.079Z,1009.53
2017-05-29T06:53:45.016Z,1009.52
2017-05-29T06:54:44.957Z,1009.54
2017-05-29T06:55:44.890Z,1009.52
2017-05-29T06:56:44.828Z,1009.54
2017-05-29T06:57:44.763Z,1009.54
2017-05-29T06:58:44.700Z,1009.56
2017-05-29T06:59:44.640Z,1009.55
2017-05-29T07:00:44.589Z,1009.53
2017-05-29T07:01:44.511Z,1009.51
2017-05-29T07:02:44.449Z,1009.5
2017-05-29T07:03:44.386Z,1009.5
2017-05-29T07:04:44.324Z,1009.5
2017-05-29T07:05:44.261Z,1009.52
2017-05-29T07:06:44.198Z,1009.52
2017-05-29T07:07:44.133Z,1009.51
2017-05-29T07:08:44.072Z,1009.48
2017-05-29T07:09:44.011Z,1009.53
2017-05-29T07:10:43.946Z,1009.52
2017-05-29T07:11:43.882Z,1009.52
2017-05-29T07:12:43.820Z,1009.53
2017-05-29T07:13:43.759Z,1009.52
2017-05-29T07:14:43.694Z,1009.53
2017-05-29T07:15:43.631Z,1009.5
2017-05-29T07:16:43.569Z,1009.52
2017-05-29T07:17:43.504Z,1009.5
2017-05-29T07:18:43.442Z,1009.51
2017-05-29T07:19:43.380Z,1009.5
2017-05-29T07:20:43.317Z,1009.5
2017-05-29T07:21:43.253Z,1009.44
2017-05-29T07:22:43.190Z,1009.42
2017-05-29T07:23:43.128Z,1009.38
2017-05-29T07:24:43.066Z,1009.36
2017-05-29T07:25:43.002Z,1009.31
2017-05-29T07:26:42.939Z,1009.36
2017-05-29T07:27:42.877Z,1009.32
2017-05-29T07:28:42.812Z,1009.35
2017-05-29T07:29:42.749Z,1009.33
2017-05-29T07:30:42.687Z,1009.35
2017-05-29T07:31:42.624Z,1009.34
2017-05-29T07:32:42.561Z,1009.36
2017-05-29T07:33:42.497Z,1009.38
2017-05-29T07:34:42.434Z,1009.35
2017-05-29T07:35:42.373Z,1009.36
2017-05-29T07:36:42.308Z,1009.38
2017-05-29T07:37:42.246Z,1009.36
2017-05-29T07:38:42.182Z,1009.32
2017-05-29T07:39:42.120Z,1009.38
2017-05-29T07:40:42.057Z,1009.33
2017-05-29T07:41:42.018Z,1009.31
2017-05-29T07:42:41.930Z,1009.29
2017-05-29T07:43:41.870Z,1009.33
2017-05-29T07:44:41.805Z,1009.34
2017-05-29T07:45:41.742Z,1009.31
2017-05-29T07:46:41.679Z,1009.32
2017-05-29T07:47:41.614Z,1009.33
2017-05-29T07:48:41.552Z,1009.31
2017-05-29T07:49:41.491Z,1009.34
2017-05-29T07:50:41.427Z,1009.35
2017-05-29T07:51:41.364Z,1009.35
2017-05-29T07:52:41.302Z,1009.35
2017-05-29T07:53:41.238Z,1009.35
2017-05-29T07:54:41.176Z,1009.33
2017-05-29T07:55:41.113Z,1009.27
2017-05-29T07:56:41.050Z,1009.27
2017-05-29T07:57:40.987Z,1009.26
2017-05-29T07:58:40.922Z,1009.28
2017-05-29T07:59:40.861Z,1009.3
2017-05-29T08:00:40.798Z,1009.27
2017-05-29T08:01:40.736Z,1009.3
2017-05-29T08:02:40.672Z,1009.27
2017-05-29T08:03:40.609Z,1009.23
2017-05-29T08:04:40.545Z,1009.23
2017-05-29T08:05:40.484Z,1009.25
2017-05-29T08:06:40.420Z,1009.25
2017-05-29T08:07:40.358Z,1009.27
2017-05-29T08:08:40.305Z,1009.24
2017-05-29T08:09:40.230Z,1009.26
2017-05-29T08:10:40.170Z,1009.27
2017-05-29T08:11:40.105Z,1009.24
2017-05-29T08:12:40.043Z,1009.26
2017-05-29T08:13:39.978Z,1009.25
2017-05-29T08:14:39.917Z,1009.23
2017-05-29T08:15:39.852Z,1009.22
2017-05-29T08:16:39.789Z,1009.21
2017-05-29T08:17:39.732Z,1009.23
2017-05-29T08:18:39.664Z,1009.22
2017-05-29T08:19:39.601Z,1009.19
2017-05-29T08:20:39.538Z,1009.21
2017-05-29T08:21:39.479Z,1009.21
2017-05-29T08:22:39.413Z,1009.2
2017-05-29T08:23:39.351Z,1009.18
2017-05-29T08:24:39.287Z,1009.22
2017-05-29T08:25:39.228Z,1009.19
2017-05-29T08:26:39.161Z,1009.21
2017-05-29T08:27:39.099Z,1009.17
2017-05-29T08:28:39.036Z,1009.19
2017-05-29T08:29:38.973Z,1009.21
2017-05-29T08:30:38.911Z,1009.25
2017-05-29T08:31:38.849Z,1009.2
2017-05-29T08:32:38.785Z,1009.23
2017-05-29T08:33:38.724Z,1009.25
2017-05-29T08:34:38.657Z,1009.24
2017-05-29T08:35:38.595Z,1009.22
2017-05-29T08:36:38.534Z,1009.22
2017-05-29T08:37:38.472Z,1009.22
2017-05-29T08:38:38.407Z,1009.25
2017-05-29T08:39:38.345Z,1009.21
2017-05-29T08:40:38.283Z,1009.22
2017-05-29T08:41:38.221Z,1009.3
2017-05-29T08:42:38.155Z,1009.26
2017-05-29T08:43:38.093Z,1009.27
2017-05-29T08:44:38.034Z,1009.25
2017-05-29T08:45:37.969Z,1009.24
2017-05-29T08:46:37.905Z,1009.24
2017-05-29T08:47:37.842Z,1009.23
2017-05-29T08:48:37.781Z,1009.26
2017-05-29T08:49:37.720Z,1009.23
2017-05-29T08:50:37.652Z,1009.2
2017-05-29T08:51:37.590Z,1009.22
2017-05-29T08:52:37.528Z,1009.22
2017-05-29T08:53:37.465Z,1009.23
2017-05-29T08:54:37.402Z,1009.23
2017-05-29T08:55:37.340Z,1009.27
2017-05-29T08:56:37.277Z,1009.22
2017-05-29T08:57:37.216Z,1009.23
2017-05-29T08:58:37.151Z,1009.21
2017-05-29T08:59:37.090Z,1009.22
2017-05-29T09:00:37.025Z,1009.2
2017-05-29T09:01:36.963Z,1009.18
2017-05-29T09:02:36.900Z,1009.19
2017-05-29T09:03:36.837Z,1009.21
2017-05-29T09:04:36.776Z,1009.22
2017-05-29T09:05:36.713Z,1009.19
2017-05-29T09:06:36.648Z,1009.14
2017-05-29T09:07:36.585Z,1009.13
2017-05-29T09:08:36.521Z,1009.12
2017-05-29T09:09:36.459Z,1009.14
2017-05-29T09:10:36.400Z,1009.13
2017-05-29T09:11:36.333Z,1009.09
2017-05-29T09:12:36.272Z,1009.13
2017-05-29T09:13:36.209Z,1009.1
2017-05-29T09:14:36.146Z,1009.12
2017-05-29T09:15:36.082Z,1009.11
2017-05-29T09:16:36.019Z,1009.04
2017-05-29T09:17:35.957Z,1009.04
2017-05-29T09:18:35.894Z,1009.09
2017-05-29T09:19:35.832Z,1009.09
2017-05-29T09:20:35.770Z,1009.12
2017-05-29T09:21:35.706Z,1009.13
2017-05-29T09:22:35.643Z,1009.11
2017-05-29T09:23:35.581Z,1009.15
2017-05-29T09:24:35.517Z,1009.13
2017-05-29T09:25:35.454Z,1009.13
2017-05-29T09:26:35.393Z,1009.12
2017-05-29T09:27:35.331Z,1009.12
2017-05-29T09:28:35.266Z,1009.16
2017-05-29T09:29:35.239Z,1009.15
2017-05-29T09:30:35.142Z,1009.15
2017-05-29T09:31:35.079Z,1009.18
2017-05-29T09:32:35.020Z,1009.16
2017-05-29T09:33:34.954Z,1009.2
2017-05-29T09:34:34.892Z,1009.21
2017-05-29T09:35:34.837Z,1009.17
2017-05-29T09:36:34.768Z,1009.21
2017-05-29T09:37:34.704Z,1009.18
2017-05-29T09:38:34.640Z,1009.18
2017-05-29T09:39:34.579Z,1009.17
2017-05-29T09:40:34.516Z,1009.18
2017-05-29T09:41:34.453Z,1009.17
2017-05-29T09:42:34.392Z,1009.21
2017-05-29T09:43:34.329Z,1009.19
2017-05-29T09:44:34.265Z,1009.21
2017-05-29T09:45:34.353Z,1009.16
2017-05-29T09:46:34.176Z,1009.16
2017-05-29T09:47:34.078Z,1009.18
2017-05-29T09:48:34.035Z,1009.2
2017-05-29T09:49:33.953Z,1009.22
2017-05-29T09:50:33.890Z,1009.21
2017-05-29T09:51:33.827Z,1009.16
2017-05-29T09:52:33.773Z,1009.14
2017-05-29T09:53:33.706Z,1009.16
2017-05-29T09:54:33.640Z,1009.18
2017-05-29T09:55:33.578Z,1009.18
2017-05-29T09:56:33.516Z,1009.17
2017-05-29T09:57:33.454Z,1009.2
2017-05-29T09:58:33.390Z,1009.12
2017-05-29T09:59:33.327Z,1009.2
2017-05-29T10:00:33.267Z,1009.24
2017-05-29T10:01:33.202Z,1009.26
2017-05-29T10:02:33.140Z,1009.22
2017-05-29T10:03:33.078Z,1009.2
2017-05-29T10:04:33.015Z,1009.2
2017-05-29T10:05:32.953Z,1009.16
2017-05-29T10:06:32.890Z,1009.09
2017-05-29T10:07:32.826Z,1009.14
2017-05-29T10:08:32.763Z,1009.14
2017-05-29T10:09:32.702Z,1009.13
2017-05-29T10:10:32.640Z,1009.08
2017-05-29T10:11:32.576Z,1009.11
2017-05-29T10:12:32.515Z,1009.15
2017-05-29T10:13:32.454Z,1009.1
2017-05-29T10:14:32.390Z,1009.11
2017-05-29T10:15:32.328Z,1009.15
2017-05-29T10:16:32.265Z,1009.07
2017-05-29T10:17:32.202Z,1009.06
2017-05-29T10:18:32.139Z,1009.09
2017-05-29T10:19:32.078Z,1009.06
2017-05-29T10:20:32.018Z,1009.06
2017-05-29T10:21:31.952Z,1009.1
2017-05-29T10:22:31.891Z,1009.1
2017-05-29T10:23:31.828Z,1009.04
2017-05-29T10:24:31.766Z,1009.03
2017-05-29T10:25:31.703Z,1009.04
2017-05-29T10:26:31.642Z,1009.01
2017-05-29T10:27:31.580Z,1008.95
2017-05-29T10:28:31.516Z,1008.98
2017-05-29T10:29:31.454Z,1009
2017-05-29T10:30:31.392Z,1008.96
2017-05-29T10:31:31.330Z,1008.95
2017-05-29T10:32:31.268Z,1008.93
2017-05-29T10:33:31.206Z,1008.88
2017-05-29T10:34:31.144Z,1008.94
2017-05-29T10:35:31.129Z,1008.94
2017-05-29T10:36:31.019Z,1008.93
2017-05-29T10:37:30.956Z,1008.89
2017-05-29T10:38:30.894Z,1008.92
2017-05-29T10:39:30.831Z,1008.89
2017-05-29T10:40:30.769Z,1008.87
2017-05-29T10:41:30.706Z,1008.85
2017-05-29T10:42:30.644Z,1008.85
2017-05-29T10:43:30.583Z,1008.88
2017-05-29T10:44:30.520Z,1008.84
2017-05-29T10:45:30.458Z,1008.92
2017-05-29T10:46:30.395Z,1008.91
2017-05-29T10:47:30.335Z,1008.92
2017-05-29T10:48:30.271Z,1008.98
2017-05-29T10:49:30.208Z,1008.95
2017-05-29T10:50:30.246Z,1008.85
2017-05-29T10:51:30.085Z,1008.88
2017-05-29T10:52:30.022Z,1008.91
2017-05-29T10:53:29.961Z,1008.85
2017-05-29T10:54:29.898Z,1008.83
2017-05-29T10:55:30.035Z,1008.82
2017-05-29T10:56:29.773Z,1008.8
2017-05-29T10:57:29.710Z,1008.82
2017-05-29T10:58:29.649Z,1008.84
2017-05-29T10:59:29.586Z,1008.85
2017-05-29T11:00:29.533Z,1008.88
2017-05-29T11:01:29.460Z,1008.92
2017-05-29T11:02:29.400Z,1008.87
2017-05-29T11:03:29.337Z,1008.83
2017-05-29T11:04:29.293Z,1008.84
2017-05-29T11:05:29.212Z,1008.85
2017-05-29T11:06:29.151Z,1008.91
2017-05-29T11:07:29.088Z,1008.91
2017-05-29T11:08:29.025Z,1008.92
2017-05-29T11:09:28.963Z,1008.92
2017-05-29T11:10:28.901Z,1008.93
2017-05-29T11:11:28.844Z,1008.92
2017-05-29T11:12:28.775Z,1008.93
2017-05-29T11:13:28.713Z,1008.91
2017-05-29T11:14:28.652Z,1008.9
2017-05-29T11:15:28.588Z,1008.94
2017-05-29T11:16:28.525Z,1008.97
2017-05-29T11:17:28.464Z,1008.97
2017-05-29T11:18:28.402Z,1008.98
2017-05-29T11:19:28.341Z,1008.93
2017-05-29T11:20:28.277Z,1008.9
2017-05-29T11:21:28.214Z,1008.92
2017-05-29T11:22:28.154Z,1008.9
2017-05-29T11:23:28.090Z,1008.92
2017-05-29T11:24:28.027Z,1008.94
2017-05-29T11:25:27.964Z,1008.91
2017-05-29T11:26:27.901Z,1008.87
2017-05-29T11:27:27.842Z,1008.88
2017-05-29T11:28:27.777Z,1008.9
2017-05-29T11:29:27.714Z,1008.91
2017-05-29T11:30:27.652Z,1008.83
2017-05-29T11:31:27.591Z,1008.83
2017-05-29T11:32:27.551Z,1008.79
2017-05-29T11:33:27.465Z,1008.77
2017-05-29T11:34:27.402Z,1008.79
2017-05-29T11:35:27.340Z,1008.74
2017-05-29T11:36:27.277Z,1008.71
2017-05-29T11:37:27.214Z,1008.75
2017-05-29T11:38:27.151Z,1008.71
2017-05-29T11:39:27.114Z,1008.8
2017-05-29T11:40:27.027Z,1008.82
2017-05-29T11:41:26.965Z,1008.81
2017-05-29T11:42:26.901Z,1008.77
2017-05-29T11:43:26.838Z,1008.82
2017-05-29T11:44:26.777Z,1008.76
2017-05-29T11:45:26.713Z,1008.75
2017-05-29T11:46:26.655Z,1008.72
2017-05-29T11:47:26.592Z,1008.75
2017-05-29T11:48:26.526Z,1008.75
2017-05-29T11:49:26.522Z,1008.73
2017-05-29T11:50:26.431Z,1008.74
2017-05-29T11:51:26.340Z,1008.74
2017-05-29T11:52:26.276Z,1008.78
2017-05-29T11:53:26.213Z,1008.75
2017-05-29T11:54:26.150Z,1008.75
2017-05-29T11:55:26.090Z,1008.74
2017-05-29T11:56:26.024Z,1008.77
2017-05-29T11:57:25.962Z,1008.72
2017-05-29T11:58:25.901Z,1008.74
2017-05-29T11:59:25.838Z,1008.74
2017-05-29T12:00:25.775Z,1008.7
2017-05-29T12:01:25.711Z,1008.72
2017-05-29T12:02:25.651Z,1008.68
2017-05-29T12:03:25.588Z,1008.66
2017-05-29T12:04:25.525Z,1008.64
2017-05-29T12:05:25.462Z,1008.64
2017-05-29T12:06:25.401Z,1008.61
2017-05-29T12:07:25.337Z,1008.61
2017-05-29T12:08:25.275Z,1008.56